sensor_id;sensor_type;location;lat;lon;timestamp;pressure;altitude;pressure_sealevel;temperature;humidity
12879;BME280;20617;49.476;10.986;2023-02-12T00:01:08;100221.88;;;6.06;100.00
12879;BME280;20617;49.476;10.986;2023-02-12T00:03:15;100223.66;;;6.16;100.00
12879;BME280;20617;49.476;10.986;2023-02-12T00:05:20;100220.25;;;6.20;100.00
12879;BME280;20617;49.476;10.986;2023-02-12T00:07:28;100221.97;;;6.21;100.00
12879;BME280;20617;49.476;10.986;2023-02-12T00:09:34;100213.38;;;6.24;100.00
12879;BME280;20617;49.476;10.986;2023-02-12T00:11:40;100216.84;;;6.30;100.00
12879;BME280;20617;49.476;10.986;2023-02-12T00:13:46;100219.47;;;6.35;100.00
12879;BME280;20617;49.476;10.986;2023-02-12T00:15:51;100225.50;;;6.35;100.00
12879;BME280;20617;49.476;10.986;2023-02-12T00:17:56;100224.63;;;6.29;100.00
12879;BME280;20617;49.476;10.986;2023-02-12T00:20:05;100219.47;;;6.33;100.00
12879;BME280;20617;49.476;10.986;2023-02-12T00:22:10;100215.22;;;6.40;100.00
12879;BME280;20617;49.476;10.986;2023-02-12T00:24:15;100221.28;;;6.48;100.00
12879;BME280;20617;49.476;10.986;2023-02-12T00:26:20;100219.59;;;6.56;100.00
12879;BME280;20617;49.476;10.986;2023-02-12T00:28:26;100221.38;;;6.64;100.00
12879;BME280;20617;49.476;10.986;2023-02-12T00:30:31;100207.59;;;6.66;100.00
12879;BME280;20617;49.476;10.986;2023-02-12T00:32:36;100209.28;;;6.66;100.00
12879;BME280;20617;49.476;10.986;2023-02-12T00:34:41;100209.28;;;6.66;100.00
12879;BME280;20617;49.476;10.986;2023-02-12T00:36:49;100207.63;;;6.69;100.00
12879;BME280;20617;49.476;10.986;2023-02-12T00:38:56;100213.66;;;6.70;100.00
12879;BME280;20617;49.476;10.986;2023-02-12T00:41:01;100217.97;;;6.72;100.00
12879;BME280;20617;49.476;10.986;2023-02-12T00:43:06;100216.25;;;6.73;100.00
12879;BME280;20617;49.476;10.986;2023-02-12T00:45:11;100205.03;;;6.75;100.00
12879;BME280;20617;49.476;10.986;2023-02-12T00:47:16;100205.88;;;6.70;100.00
12879;BME280;20617;49.476;10.986;2023-02-12T00:49:24;100211.91;;;6.70;100.00
12879;BME280;20617;49.476;10.986;2023-02-12T00:51:28;100211.06;;;6.70;100.00
12879;BME280;20617;49.476;10.986;2023-02-12T00:53:36;100215.38;;;6.72;100.00
12879;BME280;20617;49.476;10.986;2023-02-12T00:55:41;100215.38;;;6.74;100.00
12879;BME280;20617;49.476;10.986;2023-02-12T00:57:46;100222.31;;;6.75;100.00
12879;BME280;20617;49.476;10.986;2023-02-12T00:59:51;100224.03;;;6.80;100.00
12879;BME280;20617;49.476;10.986;2023-02-12T01:01:57;100221.47;;;6.85;100.00
12879;BME280;20617;49.476;10.986;2023-02-12T01:04:02;100216.31;;;6.85;100.00
12879;BME280;20617;49.476;10.986;2023-02-12T01:06:07;100224.94;;;6.89;100.00
12879;BME280;20617;49.476;10.986;2023-02-12T01:08:15;100218.06;;;6.91;100.00
12879;BME280;20617;49.476;10.986;2023-02-12T01:10:23;100222.38;;;6.93;100.00
12879;BME280;20617;49.476;10.986;2023-02-12T01:12:28;100212.00;;;6.92;100.00
12879;BME280;20617;49.476;10.986;2023-02-12T01:14:33;100219.78;;;6.87;100.00
12879;BME280;20617;49.476;10.986;2023-02-12T01:16:38;100214.56;;;6.83;100.00
12879;BME280;20617;49.476;10.986;2023-02-12T01:18:44;100215.44;;;6.85;100.00
12879;BME280;20617;49.476;10.986;2023-02-12T01:20:49;100211.16;;;6.87;100.00
12879;BME280;20617;49.476;10.986;2023-02-12T01:22:57;100214.59;;;6.89;100.00
12879;BME280;20617;49.476;10.986;2023-02-12T01:25:02;100208.53;;;6.84;100.00
12879;BME280;20617;49.476;10.986;2023-02-12T01:27:09;100210.25;;;6.78;100.00
12879;BME280;20617;49.476;10.986;2023-02-12T01:29:14;100211.91;;;6.72;100.00
12879;BME280;20617;49.476;10.986;2023-02-12T01:31:20;100208.47;;;6.74;100.00
12879;BME280;20617;49.476;10.986;2023-02-12T01:33:27;100211.97;;;6.78;100.00
12879;BME280;20617;49.476;10.986;2023-02-12T01:35:32;100211.06;;;6.77;100.00
12879;BME280;20617;49.476;10.986;2023-02-12T01:37:38;100227.50;;;6.79;100.00
12879;BME280;20617;49.476;10.986;2023-02-12T01:39:43;100217.13;;;6.75;100.00
12879;BME280;20617;49.476;10.986;2023-02-12T01:41:49;100214.53;;;6.73;100.00
12879;BME280;20617;49.476;10.986;2023-02-12T01:44:24;100219.63;;;6.58;100.00
12879;BME280;20617;49.476;10.986;2023-02-12T01:46:29;100209.25;;;6.56;100.00
12879;BME280;20617;49.476;10.986;2023-02-12T01:48:36;100209.25;;;6.60;100.00
12879;BME280;20617;49.476;10.986;2023-02-12T01:50:43;100205.81;;;6.59;100.00
12879;BME280;20617;49.476;10.986;2023-02-12T01:52:52;100197.22;;;6.62;100.00
12879;BME280;20617;49.476;10.986;2023-02-12T01:55:03;100203.28;;;6.67;100.00
12879;BME280;20617;49.476;10.986;2023-02-12T01:57:10;100202.34;;;6.57;100.00
12879;BME280;20617;49.476;10.986;2023-02-12T01:59:17;100209.25;;;6.52;100.00
12879;BME280;20617;49.476;10.986;2023-02-12T02:01:27;100208.31;;;6.45;100.00
12879;BME280;20617;49.476;10.986;2023-02-12T02:03:35;100214.28;;;6.32;100.00
12879;BME280;20617;49.476;10.986;2023-02-12T02:05:46;100216.84;;;6.29;100.00
12879;BME280;20617;49.476;10.986;2023-02-12T02:07:57;100219.44;;;6.30;100.00
12879;BME280;20617;49.476;10.986;2023-02-12T02:10:06;100216.00;;;6.28;100.00
12879;BME280;20617;49.476;10.986;2023-02-12T02:12:11;100211.63;;;6.20;100.00
12879;BME280;20617;49.476;10.986;2023-02-12T02:14:31;100215.09;;;6.25;100.00
12879;BME280;20617;49.476;10.986;2023-02-12T02:16:42;100212.53;;;6.28;100.00
12879;BME280;20617;49.476;10.986;2023-02-12T02:18:57;100221.91;;;6.12;100.00
12879;BME280;20617;49.476;10.986;2023-02-12T02:21:24;100212.41;;;6.12;100.00
12879;BME280;20617;49.476;10.986;2023-02-12T02:26:32;100213.34;;;6.21;100.00
12879;BME280;20617;49.476;10.986;2023-02-12T02:29:04;100215.13;;;6.31;100.00
12879;BME280;20617;49.476;10.986;2023-02-12T02:31:17;100221.22;;;6.39;100.00
12879;BME280;20617;49.476;10.986;2023-02-12T02:33:36;100211.75;;;6.41;100.00
12879;BME280;20617;49.476;10.986;2023-02-12T02:35:47;100215.25;;;6.46;100.00
12879;BME280;20617;49.476;10.986;2023-02-12T02:38:05;100212.66;;;6.51;100.00
12879;BME280;20617;49.476;10.986;2023-02-12T02:40:14;100210.13;;;6.55;100.00
12879;BME280;20617;49.476;10.986;2023-02-12T02:42:25;100215.28;;;6.54;100.00
12879;BME280;20617;49.476;10.986;2023-02-12T02:44:36;100211.00;;;6.54;100.00
12879;BME280;20617;49.476;10.986;2023-02-12T02:46:46;100217.88;;;6.57;100.00
12879;BME280;20617;49.476;10.986;2023-02-12T02:48:55;100217.88;;;6.57;100.00
12879;BME280;20617;49.476;10.986;2023-02-12T02:51:05;100221.31;;;6.56;100.00
12879;BME280;20617;49.476;10.986;2023-02-12T02:53:15;100227.41;;;6.61;100.00
12879;BME280;20617;49.476;10.986;2023-02-12T02:55:25;100229.13;;;6.65;100.00
12879;BME280;20617;49.476;10.986;2023-02-12T02:57:36;100228.28;;;6.68;100.00
12879;BME280;20617;49.476;10.986;2023-02-12T02:59:45;100218.84;;;6.73;100.00
12879;BME280;20617;49.476;10.986;2023-02-12T03:02:00;100228.34;;;6.80;100.00
12879;BME280;20617;49.476;10.986;2023-02-12T03:04:08;100226.63;;;6.82;100.00
12879;BME280;20617;49.476;10.986;2023-02-12T03:06:21;100218.88;;;6.85;100.00
12879;BME280;20617;49.476;10.986;2023-02-12T03:08:30;100220.63;;;6.88;100.00
12879;BME280;20617;49.476;10.986;2023-02-12T03:10:41;100230.13;;;6.92;100.00
12879;BME280;20617;49.476;10.986;2023-02-12T03:12:51;100227.53;;;6.89;100.00
12879;BME280;20617;49.476;10.986;2023-02-12T03:15:00;100224.88;;;6.76;100.00
12879;BME280;20617;49.476;10.986;2023-02-12T03:17:14;100224.88;;;6.73;100.00
12879;BME280;20617;49.476;10.986;2023-02-12T03:19:23;100231.78;;;6.73;100.00
12879;BME280;20617;49.476;10.986;2023-02-12T03:21:31;100230.06;;;6.75;100.00
12879;BME280;20617;49.476;10.986;2023-02-12T03:23:41;100233.53;;;6.82;100.00
12879;BME280;20617;49.476;10.986;2023-02-12T03:25:52;100232.69;;;6.78;100.00
12879;BME280;20617;49.476;10.986;2023-02-12T03:28:03;100231.78;;;6.74;100.00
12879;BME280;20617;49.476;10.986;2023-02-12T03:30:12;100234.31;;;6.65;100.00
12879;BME280;20617;49.476;10.986;2023-02-12T03:32:28;100234.34;;;6.67;100.00
12879;BME280;20617;49.476;10.986;2023-02-12T03:34:43;100236.06;;;6.68;100.00
12879;BME280;20617;49.476;10.986;2023-02-12T03:36:53;100245.50;;;6.61;100.00
12879;BME280;20617;49.476;10.986;2023-02-12T03:39:06;100243.78;;;6.62;100.00
12879;BME280;20617;49.476;10.986;2023-02-12T03:41:17;100243.81;;;6.65;100.00
12879;BME280;20617;49.476;10.986;2023-02-12T03:43:28;100241.22;;;6.68;100.00
12879;BME280;20617;49.476;10.986;2023-02-12T03:45:42;100243.84;;;6.72;100.00
12879;BME280;20617;49.476;10.986;2023-02-12T03:47:58;100238.69;;;6.74;100.00
12879;BME280;20617;49.476;10.986;2023-02-12T03:50:09;100250.72;;;6.72;100.00
12879;BME280;20617;49.476;10.986;2023-02-12T03:52:17;100246.47;;;6.75;100.00
12879;BME280;20617;49.476;10.986;2023-02-12T03:54:23;100245.63;;;6.81;100.00
12879;BME280;20617;49.476;10.986;2023-02-12T03:56:32;100240.44;;;6.83;100.00
12879;BME280;20617;49.476;10.986;2023-02-12T03:58:40;100243.03;;;6.81;100.00
12879;BME280;20617;49.476;10.986;2023-02-12T04:00:46;100245.56;;;6.72;100.00
12879;BME280;20617;49.476;10.986;2023-02-12T04:02:54;100249.88;;;6.70;100.00
12879;BME280;20617;49.476;10.986;2023-02-12T04:05:03;100249.84;;;6.64;100.00
12879;BME280;20617;49.476;10.986;2023-02-12T04:07:08;100251.59;;;6.66;100.00
12879;BME280;20617;49.476;10.986;2023-02-12T04:09:13;100248.97;;;6.63;100.00
12879;BME280;20617;49.476;10.986;2023-02-12T04:11:24;100248.97;;;6.62;100.00
12879;BME280;20617;49.476;10.986;2023-02-12T04:13:41;100259.34;;;6.65;100.00
12879;BME280;20617;49.476;10.986;2023-02-12T04:15:59;100259.38;;;6.69;100.00
12879;BME280;20617;49.476;10.986;2023-02-12T04:18:12;100254.16;;;6.68;100.00
12879;BME280;20617;49.476;10.986;2023-02-12T04:20:24;100258.47;;;6.64;100.00
12879;BME280;20617;49.476;10.986;2023-02-12T04:22:42;100254.16;;;6.68;100.00
12879;BME280;20617;49.476;10.986;2023-02-12T04:24:57;100255.03;;;6.68;100.00
12879;BME280;20617;49.476;10.986;2023-02-12T04:27:08;100260.22;;;6.71;100.00
12879;BME280;20617;49.476;10.986;2023-02-12T04:29:21;100261.09;;;6.73;100.00
12879;BME280;20617;49.476;10.986;2023-02-12T04:31:32;100260.25;;;6.77;100.00
12879;BME280;20617;49.476;10.986;2023-02-12T04:33:52;100265.41;;;6.74;100.00
12879;BME280;20617;49.476;10.986;2023-02-12T04:36:05;100265.41;;;6.70;100.00
12879;BME280;20617;49.476;10.986;2023-02-12T04:38:16;100261.94;;;6.71;100.00
12879;BME280;20617;49.476;10.986;2023-02-12T04:40:23;100261.09;;;6.72;100.00
12879;BME280;20617;49.476;10.986;2023-02-12T04:42:28;100261.97;;;6.69;100.00
12879;BME280;20617;49.476;10.986;2023-02-12T04:44:37;100267.97;;;6.67;100.00
12879;BME280;20617;49.476;10.986;2023-02-12T04:46:42;100271.44;;;6.72;100.00
12879;BME280;20617;49.476;10.986;2023-02-12T04:48:53;100274.09;;;6.78;100.00
12879;BME280;20617;49.476;10.986;2023-02-12T04:50:58;100278.38;;;6.80;100.00
12879;BME280;20617;49.476;10.986;2023-02-12T04:53:03;100276.69;;;6.83;100.00
12879;BME280;20617;49.476;10.986;2023-02-12T04:55:08;100273.25;;;6.82;100.00
12879;BME280;20617;49.476;10.986;2023-02-12T04:57:13;100278.41;;;6.82;100.00
12879;BME280;20617;49.476;10.986;2023-02-12T04:59:17;100279.28;;;6.83;100.00
12879;BME280;20617;49.476;10.986;2023-02-12T05:01:22;100278.38;;;6.73;100.00
12879;BME280;20617;49.476;10.986;2023-02-12T05:03:29;100274.00;;;6.67;100.00
12879;BME280;20617;49.476;10.986;2023-02-12T05:05:37;100277.47;;;6.68;100.00
12879;BME280;20617;49.476;10.986;2023-02-12T05:07:42;100278.31;;;6.65;100.00
12879;BME280;20617;49.476;10.986;2023-02-12T05:09:47;100281.75;;;6.63;100.00
12879;BME280;20617;49.476;10.986;2023-02-12T05:11:52;100285.22;;;6.65;100.00
12879;BME280;20617;49.476;10.986;2023-02-12T05:13:57;100289.47;;;6.60;100.00
12879;BME280;20617;49.476;10.986;2023-02-12T05:16:03;100290.31;;;6.57;100.00
12879;BME280;20617;49.476;10.986;2023-02-12T05:18:08;100281.72;;;6.55;100.00
12879;BME280;20617;49.476;10.986;2023-02-12T05:20:13;100286.06;;;6.61;100.00
12879;BME280;20617;49.476;10.986;2023-02-12T05:22:20;100285.22;;;6.68;100.00
12879;BME280;20617;49.476;10.986;2023-02-12T05:24:25;100284.38;;;6.72;100.00
12879;BME280;20617;49.476;10.986;2023-02-12T05:26:30;100285.28;;;6.77;100.00
12879;BME280;20617;49.476;10.986;2023-02-12T05:28:35;100281.88;;;6.81;100.00
12879;BME280;20617;49.476;10.986;2023-02-12T05:30:40;100286.19;;;6.82;100.00
12879;BME280;20617;49.476;10.986;2023-02-12T05:32:45;100286.19;;;6.82;100.00
12879;BME280;20617;49.476;10.986;2023-02-12T05:34:50;100287.88;;;6.80;100.00
12879;BME280;20617;49.476;10.986;2023-02-12T05:36:55;100289.56;;;6.72;100.00
12879;BME280;20617;49.476;10.986;2023-02-12T05:39:06;100292.09;;;6.63;100.00
12879;BME280;20617;49.476;10.986;2023-02-12T05:41:12;100297.22;;;6.56;100.00
12879;BME280;20617;49.476;10.986;2023-02-12T05:43:17;100306.69;;;6.53;100.00
12879;BME280;20617;49.476;10.986;2023-02-12T05:45:22;100309.28;;;6.53;100.00
12879;BME280;20617;49.476;10.986;2023-02-12T05:47:28;100308.41;;;6.51;100.00
12879;BME280;20617;49.476;10.986;2023-02-12T05:49:33;100311.81;;;6.48;100.00
12879;BME280;20617;49.476;10.986;2023-02-12T05:51:38;100317.81;;;6.41;100.00
12879;BME280;20617;49.476;10.986;2023-02-12T05:53:43;100327.28;;;6.38;100.00
12879;BME280;20617;49.476;10.986;2023-02-12T05:55:50;100323.84;;;6.37;100.00
12879;BME280;20617;49.476;10.986;2023-02-12T05:57:58;100331.53;;;6.34;100.00
12879;BME280;20617;49.476;10.986;2023-02-12T06:00:04;100332.41;;;6.33;100.00
12879;BME280;20617;49.476;10.986;2023-02-12T06:02:12;100333.28;;;6.32;100.00
12879;BME280;20617;49.476;10.986;2023-02-12T06:04:19;100330.72;;;6.35;100.00
12879;BME280;20617;49.476;10.986;2023-02-12T06:06:24;100323.84;;;6.37;100.00
12879;BME280;20617;49.476;10.986;2023-02-12T06:08:29;100335.94;;;6.41;100.00
12879;BME280;20617;49.476;10.986;2023-02-12T06:10:35;100332.47;;;6.41;100.00
12879;BME280;20617;49.476;10.986;2023-02-12T06:12:43;100327.31;;;6.42;100.00
12879;BME280;20617;49.476;10.986;2023-02-12T06:14:48;100322.16;;;6.45;100.00
12879;BME280;20617;49.476;10.986;2023-02-12T06:16:52;100334.28;;;6.49;100.00
12879;BME280;20617;49.476;10.986;2023-02-12T06:18:57;100330.81;;;6.50;100.00
12879;BME280;20617;49.476;10.986;2023-02-12T06:21:04;100332.53;;;6.47;100.00
12879;BME280;20617;49.476;10.986;2023-02-12T06:23:09;100330.78;;;6.44;100.00
12879;BME280;20617;49.476;10.986;2023-02-12T06:25:14;100331.63;;;6.42;100.00
12879;BME280;20617;49.476;10.986;2023-02-12T06:27:19;100336.78;;;6.42;100.00
12879;BME280;20617;49.476;10.986;2023-02-12T06:29:26;100333.38;;;6.44;100.00
12879;BME280;20617;49.476;10.986;2023-02-12T06:31:34;100340.31;;;6.50;100.00
12879;BME280;20617;49.476;10.986;2023-02-12T06:33:40;100338.59;;;6.50;100.00
12879;BME280;20617;49.476;10.986;2023-02-12T06:35:44;100336.00;;;6.50;100.00
12879;BME280;20617;49.476;10.986;2023-02-12T06:37:49;100339.47;;;6.54;100.00
12879;BME280;20617;49.476;10.986;2023-02-12T06:39:54;100336.03;;;6.56;100.00
12879;BME280;20617;49.476;10.986;2023-02-12T06:42:00;100342.09;;;6.58;100.00
12879;BME280;20617;49.476;10.986;2023-02-12T06:44:05;100346.47;;;6.64;100.00
12879;BME280;20617;49.476;10.986;2023-02-12T06:46:13;100349.88;;;6.63;100.00
12879;BME280;20617;49.476;10.986;2023-02-12T06:48:18;100348.19;;;6.65;100.00
12879;BME280;20617;49.476;10.986;2023-02-12T06:50:23;100356.00;;;6.70;100.00
12879;BME280;20617;49.476;10.986;2023-02-12T06:52:28;100366.38;;;6.73;100.00
12879;BME280;20617;49.476;10.986;2023-02-12T06:54:33;100356.91;;;6.75;100.00
12879;BME280;20617;49.476;10.986;2023-02-12T06:56:38;100360.38;;;6.78;100.00
12879;BME280;20617;49.476;10.986;2023-02-12T06:58:45;100365.56;;;6.82;100.00
12879;BME280;20617;49.476;10.986;2023-02-12T07:00:51;100356.09;;;6.85;100.00
12879;BME280;20617;49.476;10.986;2023-02-12T07:02:58;100365.59;;;6.89;100.00
12879;BME280;20617;49.476;10.986;2023-02-12T07:05:03;100359.59;;;6.90;100.00
12879;BME280;20617;49.476;10.986;2023-02-12T07:07:11;100368.25;;;6.92;100.00
12879;BME280;20617;49.476;10.986;2023-02-12T07:09:16;100376.03;;;6.97;100.00
12879;BME280;20617;49.476;10.986;2023-02-12T07:11:22;100376.03;;;6.97;100.00
12879;BME280;20617;49.476;10.986;2023-02-12T07:13:27;100374.31;;;7.00;100.00
12879;BME280;20617;49.476;10.986;2023-02-12T07:15:38;100366.56;;;7.03;100.00
12879;BME280;20617;49.476;10.986;2023-02-12T07:17:43;100371.72;;;7.00;100.00
12879;BME280;20617;49.476;10.986;2023-02-12T07:19:50;100376.03;;;6.97;100.00
12879;BME280;20617;49.476;10.986;2023-02-12T07:21:58;100376.03;;;6.97;100.00
12879;BME280;20617;49.476;10.986;2023-02-12T07:24:03;100378.59;;;6.92;100.00
12879;BME280;20617;49.476;10.986;2023-02-12T07:26:11;100382.88;;;6.92;100.00
12879;BME280;20617;49.476;10.986;2023-02-12T07:28:16;100379.44;;;6.94;100.00
12879;BME280;20617;49.476;10.986;2023-02-12T07:30:21;100381.16;;;6.91;100.00
12879;BME280;20617;49.476;10.986;2023-02-12T07:32:26;100380.28;;;6.92;100.00
12879;BME280;20617;49.476;10.986;2023-02-12T07:34:31;100384.66;;;6.96;100.00
12879;BME280;20617;49.476;10.986;2023-02-12T07:36:38;100370.88;;;6.98;100.00
12879;BME280;20617;49.476;10.986;2023-02-12T07:38:43;100389.00;;;6.98;100.00
12879;BME280;20617;49.476;10.986;2023-02-12T07:40:48;100378.66;;;7.05;100.00
12879;BME280;20617;49.476;10.986;2023-02-12T07:42:54;100381.25;;;7.06;100.00
12879;BME280;20617;49.476;10.986;2023-02-12T07:44:59;100385.59;;;7.07;100.00
12879;BME280;20617;49.476;10.986;2023-02-12T07:47:04;100381.25;;;7.09;100.00
12879;BME280;20617;49.476;10.986;2023-02-12T07:49:11;100375.25;;;7.10;100.00
12879;BME280;20617;49.476;10.986;2023-02-12T07:51:17;100378.72;;;7.14;100.00
12879;BME280;20617;49.476;10.986;2023-02-12T07:53:24;100379.63;;;7.19;100.00
12879;BME280;20617;49.476;10.986;2023-02-12T07:55:29;100386.53;;;7.21;100.00
12879;BME280;20617;49.476;10.986;2023-02-12T07:57:35;100382.19;;;7.20;100.00
12879;BME280;20617;49.476;10.986;2023-02-12T07:59:40;100381.31;;;7.15;100.00
12879;BME280;20617;49.476;10.986;2023-02-12T08:01:46;100381.31;;;7.18;100.00
12879;BME280;20617;49.476;10.986;2023-02-12T08:03:52;100379.63;;;7.19;100.00
12879;BME280;20617;49.476;10.986;2023-02-12T08:05:57;100383.09;;;7.22;100.00
12879;BME280;20617;49.476;10.986;2023-02-12T08:08:02;100381.34;;;7.20;100.00
12879;BME280;20617;49.476;10.986;2023-02-12T08:10:12;100381.34;;;7.20;100.00
12879;BME280;20617;49.476;10.986;2023-02-12T08:12:17;100384.84;;;7.25;100.00
12879;BME280;20617;49.476;10.986;2023-02-12T08:14:22;100393.44;;;7.19;100.00
12879;BME280;20617;49.476;10.986;2023-02-12T08:16:28;100395.09;;;7.11;100.00
12879;BME280;20617;49.476;10.986;2023-02-12T08:18:34;100394.31;;;7.21;100.00
12879;BME280;20617;49.476;10.986;2023-02-12T08:20:39;100396.91;;;7.26;100.00
12879;BME280;20617;49.476;10.986;2023-02-12T08:22:43;100394.34;;;7.32;100.00
12879;BME280;20617;49.476;10.986;2023-02-12T08:24:48;100400.44;;;7.40;100.00
12879;BME280;20617;49.476;10.986;2023-02-12T08:26:56;100397.06;;;7.51;100.00
12879;BME280;20617;49.476;10.986;2023-02-12T08:29:03;100396.25;;;7.59;100.00
12879;BME280;20617;49.476;10.986;2023-02-12T08:31:10;100391.09;;;7.68;100.00
12879;BME280;20617;49.476;10.986;2023-02-12T08:33:16;100381.63;;;7.77;100.00
12879;BME280;20617;49.476;10.986;2023-02-12T08:35:20;100379.03;;;7.81;100.00
12879;BME280;20617;49.476;10.986;2023-02-12T08:37:25;100374.72;;;7.83;100.00
12879;BME280;20617;49.476;10.986;2023-02-12T08:39:30;100373.84;;;7.83;100.00
12879;BME280;20617;49.476;10.986;2023-02-12T08:41:35;100366.09;;;7.89;100.00
12879;BME280;20617;49.476;10.986;2023-02-12T08:43:43;100369.56;;;7.96;100.00
12879;BME280;20617;49.476;10.986;2023-02-12T08:45:48;100372.13;;;7.89;100.00
12879;BME280;20617;49.476;10.986;2023-02-12T08:47:54;100371.28;;;7.93;100.00
12879;BME280;20617;49.476;10.986;2023-02-12T08:49:59;100375.53;;;7.79;100.00
12879;BME280;20617;49.476;10.986;2023-02-12T08:52:04;100369.50;;;7.74;100.00
12879;BME280;20617;49.476;10.986;2023-02-12T08:54:11;100373.78;;;7.70;100.00
12879;BME280;20617;49.476;10.986;2023-02-12T08:56:16;100377.28;;;7.74;100.00
12879;BME280;20617;49.476;10.986;2023-02-12T08:58:21;100370.34;;;7.73;100.00
12879;BME280;20617;49.476;10.986;2023-02-12T09:00:29;100375.53;;;7.70;100.00
12879;BME280;20617;49.476;10.986;2023-02-12T09:02:34;100377.22;;;7.65;100.00
12879;BME280;20617;49.476;10.986;2023-02-12T09:04:39;100385.88;;;7.67;100.00
12879;BME280;20617;49.476;10.986;2023-02-12T09:06:44;100384.19;;;7.72;100.00
12879;BME280;20617;49.476;10.986;2023-02-12T09:08:50;100382.47;;;7.80;100.00
12879;BME280;20617;49.476;10.986;2023-02-12T09:10:57;100385.06;;;7.79;100.00
12879;BME280;20617;49.476;10.986;2023-02-12T09:13:02;100393.72;;;7.84;100.00
12879;BME280;20617;49.476;10.986;2023-02-12T09:15:08;100385.97;;;7.91;100.00
12879;BME280;20617;49.476;10.986;2023-02-12T09:17:15;100392.91;;;8.05;100.00
12879;BME280;20617;49.476;10.986;2023-02-12T09:19:20;100386.88;;;8.13;100.00
12879;BME280;20617;49.476;10.986;2023-02-12T09:21:26;100391.22;;;8.16;100.00
12879;BME280;20617;49.476;10.986;2023-02-12T09:23:31;100385.16;;;8.14;100.00
12879;BME280;20617;49.476;10.986;2023-02-12T09:25:40;100386.00;;;8.11;100.00
12879;BME280;20617;49.476;10.986;2023-02-12T09:27:45;100391.19;;;8.01;100.00
12879;BME280;20617;49.476;10.986;2023-02-12T09:29:50;100401.56;;;7.98;100.00
12879;BME280;20617;49.476;10.986;2023-02-12T09:31:55;100394.63;;;8.03;100.00
12879;BME280;20617;49.476;10.986;2023-02-12T09:34:04;100398.94;;;7.93;100.00
12879;BME280;20617;49.476;10.986;2023-02-12T09:36:11;100396.34;;;7.94;100.00
12879;BME280;20617;49.476;10.986;2023-02-12T09:38:16;100403.28;;;8.00;100.00
12879;BME280;20617;49.476;10.986;2023-02-12T09:40:26;100404.16;;;7.98;100.00
12879;BME280;20617;49.476;10.986;2023-02-12T09:42:54;100405.84;;;7.94;100.00
12879;BME280;20617;49.476;10.986;2023-02-12T09:45:10;100409.31;;;7.93;100.00
12879;BME280;20617;49.476;10.986;2023-02-12T09:47:22;100401.53;;;7.90;100.00
12879;BME280;20617;49.476;10.986;2023-02-12T09:52:15;100401.56;;;8.01;100.00
12879;BME280;20617;49.476;10.986;2023-02-12T09:54:22;100405.00;;;7.98;100.00
12879;BME280;20617;49.476;10.986;2023-02-12T09:56:34;100408.47;;;7.97;100.00
12879;BME280;20617;49.476;10.986;2023-02-12T09:58:42;100407.59;;;7.95;100.00
12879;BME280;20617;49.476;10.986;2023-02-12T10:00:50;100411.00;;;7.83;100.00
12879;BME280;20617;49.476;10.986;2023-02-12T10:03:00;100415.34;;;7.83;100.00
12879;BME280;20617;49.476;10.986;2023-02-12T10:05:15;100408.44;;;7.92;100.00
12879;BME280;20617;49.476;10.986;2023-02-12T10:07:31;100408.47;;;8.05;100.00
12879;BME280;20617;49.476;10.986;2023-02-12T10:09:53;100407.63;;;8.13;100.00
12879;BME280;20617;49.476;10.986;2023-02-12T10:12:07;100405.03;;;8.13;100.00
12879;BME280;20617;49.476;10.986;2023-02-12T10:14:31;100410.22;;;8.06;100.00
12879;BME280;20617;49.476;10.986;2023-02-12T10:16:44;100414.53;;;8.02;100.00
12879;BME280;20617;49.476;10.986;2023-02-12T10:19:12;100405.88;;;8.08;100.00
12879;BME280;20617;49.476;10.986;2023-02-12T10:21:32;100406.78;;;8.19;100.00
12879;BME280;20617;49.476;10.986;2023-02-12T10:23:55;100400.75;;;8.29;100.00
12879;BME280;20617;49.476;10.986;2023-02-12T10:26:12;100398.16;;;8.23;100.00
12879;BME280;20617;49.476;10.986;2023-02-12T10:28:24;100406.78;;;8.25;100.00
12879;BME280;20617;49.476;10.986;2023-02-12T10:30:36;100407.69;;;8.35;100.00
12879;BME280;20617;49.476;10.986;2023-02-12T10:32:45;100406.84;;;8.39;100.00
12879;BME280;20617;49.476;10.986;2023-02-12T10:34:51;100402.53;;;8.47;100.00
12879;BME280;20617;49.476;10.986;2023-02-12T10:37:02;100401.69;;;8.47;100.00
12879;BME280;20617;49.476;10.986;2023-02-12T10:39:13;100399.94;;;8.49;100.00
12879;BME280;20617;49.476;10.986;2023-02-12T10:41:21;100403.41;;;8.45;100.00
12879;BME280;20617;49.476;10.986;2023-02-12T10:43:28;100395.63;;;8.48;100.00
12879;BME280;20617;49.476;10.986;2023-02-12T10:45:34;100401.66;;;8.41;100.00
12879;BME280;20617;49.476;10.986;2023-02-12T10:47:40;100401.63;;;8.34;100.00
12879;BME280;20617;49.476;10.986;2023-02-12T10:49:47;100395.56;;;8.31;100.00
12879;BME280;20617;49.476;10.986;2023-02-12T10:52:04;100403.34;;;8.26;100.00
12879;BME280;20617;49.476;10.986;2023-02-12T10:54:35;100402.50;;;8.35;100.00
12879;BME280;20617;49.476;10.986;2023-02-12T10:56:41;100399.00;;;8.31;100.00
12879;BME280;20617;49.476;10.986;2023-02-12T10:58:56;100398.16;;;8.31;100.00
12879;BME280;20617;49.476;10.986;2023-02-12T11:01:03;100399.03;;;8.34;100.00
12879;BME280;20617;49.476;10.986;2023-02-12T11:03:19;100397.34;;;8.53;100.00
12879;BME280;20617;49.476;10.986;2023-02-12T11:05:28;100395.59;;;8.49;100.00
12879;BME280;20617;49.476;10.986;2023-02-12T11:07:47;100393.91;;;8.56;100.00